Jorge De Sena — CSKH — position and weather

sailwx.info

Track history (hours):
 
Tides and Currents Weather Stations Pressure Air Temp Water Temp Dewpoint Dewpoint Depression Visibility Wind Speed Wind Dir Waves Ship Positions

Jorge De Sena

Last reported at 2017-Oct-19 09:01 UTC. Time now 2017-Oct-19 09:17 UTC.
Position N 38°41' W 009°08'.

Length 49 m; draft 1.7 m.

Type: Passenger vessel. MMSI: 263701440.

Date/timePositionNaut miles runAvg speedWind from/ knotsBaromVisibWave heightAir tempDewpointWater temp
2017-Oct-19 09:01N 38°41' W 009°08'3 5.4
2017-Oct-19 08:31N 38°39' W 009°06'1 2.4
2017-Oct-19 08:00N 38°40' W 009°07'0 1.0
2017-Oct-19 07:30N 38°40' W 009°06'3 5.7
2017-Oct-19 07:00N 38°42' W 009°08'4 8.4
2017-Oct-19 06:31N 38°39' W 009°05'4 8.3
2017-Oct-19 06:00N 38°42' W 009°08'4 8.3
2017-Oct-19 05:30N 38°39' W 009°05'4 7.7
2017-Oct-19 05:00N 38°42' W 009°08'4 7.7
2017-Oct-19 04:30N 38°39' W 009°05'0 0.0
2017-Oct-18 22:56N 38°39' W 009°05'4 9.8
2017-Oct-18 22:31N 38°42' W 009°08'4 8.3
2017-Oct-18 22:01N 38°39' W 009°05'3 6.7
2017-Oct-18 21:30N 38°41' W 009°08'3 6.8
2017-Oct-18 21:01N 38°39' W 009°05'3 6.8
2017-Oct-18 20:31N 38°41' W 009°08'3 6.9
2017-Oct-18 20:00N 38°39' W 009°05'0 0.0
2017-Oct-18 19:30N 38°39' W 009°05'4 8.3
2017-Oct-18 19:00N 38°42' W 009°08'4 8.3
2017-Oct-18 18:30N 38°39' W 009°05'4 8.2
2017-Oct-18 18:01N 38°42' W 009°08'4 8.1
2017-Oct-18 17:30N 38°39' W 009°05'4 8.2
2017-Oct-18 17:01N 38°42' W 009°08'2 4.7
2017-Oct-18 16:31N 38°40' W 009°07'1 1.2
2017-Oct-18 16:00N 38°40' W 009°07'2 0.6
2017-Oct-18 12:14N 38°39' W 009°05'314.1
2017-Oct-18 12:00N 38°42' W 009°08'3 5.7
2017-Oct-18 11:30N 38°39' W 009°06'3 5.7
2017-Oct-18 11:00N 38°42' W 009°08'3 6.4
2017-Oct-18 10:31N 38°39' W 009°05'0 0.6
2017-Oct-18 09:59N 38°39' W 009°05'0 0.0
2017-Oct-18 09:30N 38°39' W 009°05'4 8.4
2017-Oct-18 09:01N 38°42' W 009°08'4 8.3
2017-Oct-18 08:30N 38°39' W 009°05'4 8.3
2017-Oct-18 08:00N 38°42' W 009°08'4 7.7
2017-Oct-18 07:30N 38°39' W 009°05'2 3.4
2017-Oct-18 07:01N 38°40' W 009°07'0 0.3
2017-Oct-18 06:31N 38°40' W 009°07'1 2.4
2017-Oct-18 06:01N 38°39' W 009°06'1 0.1
2017-Oct-17 20:24N 38°39' W 009°05'2 5.4
2017-Oct-17 20:01N 38°40' W 009°07'1 1.5
2017-Oct-17 19:31N 38°41' W 009°08'3 5.6
2017-Oct-17 19:00N 38°39' W 009°05'2 3.8
2017-Oct-17 18:31N 38°40' W 009°07'0 0.9
2017-Oct-17 18:00N 38°40' W 009°06'3 5.9
2017-Oct-17 17:30N 38°42' W 009°08'4 8.3
2017-Oct-17 17:01N 38°39' W 009°05'4 8.1
2017-Oct-17 16:31N 38°42' W 009°08'2 4.5
2017-Oct-17 16:00N 38°40' W 009°07'0 0.8
2017-Oct-17 15:31N 38°40' W 009°08'3 5.1
2017-Oct-17 15:00N 38°39' W 009°05'0 0.0
2017-Oct-17 14:30N 38°39' W 009°05'3 6.7
2017-Oct-17 14:00N 38°41' W 009°08'3 5.5
2017-Oct-17 13:30N 38°39' W 009°06'3 5.6
2017-Oct-17 13:00N 38°42' W 009°08'3 5.3
2017-Oct-17 12:30N 38°39' W 009°06'1 1.6
2017-Oct-17 12:00N 38°39' W 009°05'0 0.0
2017-Oct-17 11:31N 38°39' W 009°05'0 0.0
2017-Oct-17 11:00N 38°39' W 009°05'0 0.0
2017-Oct-17 10:30N 38°39' W 009°05'0 0.0
2017-Oct-17 10:00N 38°39' W 009°05'3 6.9
2017-Oct-17 09:31N 38°41' W 009°08'3 5.8
2017-Oct-17 09:00N 38°39' W 009°06'1 1.4
2017-Oct-17 08:31N 38°39' W 009°05'4 7.7
2017-Oct-17 08:00N 38°42' W 009°08'2 4.7
2017-Oct-17 07:31N 38°40' W 009°07'1 2.2
2017-Oct-17 07:00N 38°39' W 009°06'4 7.2
2017-Oct-17 06:31N 38°42' W 009°08'4 8.3
2017-Oct-17 06:00N 38°39' W 009°05'4 7.4
2017-Oct-17 05:30N 38°42' W 009°08'3 6.7
2017-Oct-17 05:00N 38°39' W 009°05'3 6.8
2017-Oct-17 04:31N 38°42' W 009°08'4 7.5
2017-Oct-17 04:00N 38°39' W 009°05'0 0.0
2017-Oct-17 01:23N 38°39' W 009°05'411.3
2017-Oct-17 01:00N 38°42' W 009°08'4 8.3
2017-Oct-17 00:30N 38°39' W 009°05'4 8.3
2017-Oct-17 00:00N 38°42' W 009°08'4 8.3
2017-Oct-16 23:30N 38°39' W 009°05'4 8.3
2017-Oct-16 23:00N 38°42' W 009°08'4 8.2
2017-Oct-16 22:30N 38°39' W 009°05'3 6.8
2017-Oct-16 22:00N 38°41' W 009°08'2 5.0
2017-Oct-16 21:30N 38°39' W 009°06'3 5.2
2017-Oct-16 21:00N 38°42' W 009°08'3 5.4
2017-Oct-16 20:30N 38°39' W 009°06'1 1.8
2017-Oct-16 20:00N 38°39' W 009°05'0 0.0
2017-Oct-16 19:30N 38°39' W 009°05'4 8.4
2017-Oct-16 19:01N 38°42' W 009°08'4 8.3
2017-Oct-16 18:30N 38°39' W 009°05'4 7.8
2017-Oct-16 18:01N 38°42' W 009°08'2 4.0
2017-Oct-16 17:31N 38°40' W 009°07'1 1.9
2017-Oct-16 17:01N 38°40' W 009°06'3 6.0
2017-Oct-16 16:30N 38°42' W 009°08'4 8.4
2017-Oct-16 16:00N 38°39' W 009°05'0 0.0
2017-Oct-16 08:55N 38°39' W 009°05'0 0.1
2017-Oct-16 08:29N 38°39' W 009°05'3 6.6
2017-Oct-16 08:00N 38°41' W 009°08'3 6.2
2017-Oct-16 07:29N 38°39' W 009°05'4 8.8
2017-Oct-16 07:00N 38°42' W 009°08'4 8.3
2017-Oct-16 06:30N 38°39' W 009°05'3 5.4
2017-Oct-16 06:01N 38°41' W 009°08'3 5.0
2017-Oct-16 05:30N 38°39' W 009°05'  
2017-Oct-13 19:41N 38°39' W 009°05'0 0.5
2017-Oct-13 19:30N 38°39' W 009°05'4 8.3
2017-Oct-13 19:00N 38°42' W 009°08'4 8.3
2017-Oct-13 18:31N 38°39' W 009°05'4 7.9
2017-Oct-13 18:00N 38°42' W 009°08'2 4.7
2017-Oct-13 17:31N 38°40' W 009°07'1 2.2
2017-Oct-13 17:00N 38°39' W 009°06'3 6.9
2017-Oct-13 16:30N 38°42' W 009°08'4 8.3
2017-Oct-13 16:00N 38°39' W 009°05'0 0.1
2017-Oct-13 15:30N 38°39' W 009°05'0 0.3
2017-Oct-13 15:00N 38°39' W 009°05'0 0.0
2017-Oct-13 14:30N 38°39' W 009°05'0 0.0
2017-Oct-13 14:00N 38°39' W 009°05'  
2017-Oct-10 09:18N 38°39' W 009°05'0 0.0
2017-Oct-10 09:00N 38°39' W 009°05'  
Track history (hours):
 
Tides and Currents Weather Stations Pressure Air Temp Water Temp Dewpoint Dewpoint Depression Visibility Wind Speed Wind Dir Waves Ship Positions

Jorge De Sena

Last reported at 2017-Oct-19 09:01 UTC. Time now 2017-Oct-19 09:17 UTC.
Position N 38°41' W 009°08'.

Length 49 m; draft 1.7 m.

Type: Passenger vessel. MMSI: 263701440.

Date/timePositionNaut miles runAvg speedWind from/ knotsBaromVisibWave heightAir tempDewpointWater temp
2017-Oct-19 09:01N 38°41' W 009°08'3 5.4
2017-Oct-19 08:31N 38°39' W 009°06'1 2.4
2017-Oct-19 08:00N 38°40' W 009°07'0 1.0
2017-Oct-19 07:30N 38°40' W 009°06'3 5.7
2017-Oct-19 07:00N 38°42' W 009°08'4 8.4
2017-Oct-19 06:31N 38°39' W 009°05'4 8.3
2017-Oct-19 06:00N 38°42' W 009°08'4 8.3
2017-Oct-19 05:30N 38°39' W 009°05'4 7.7
2017-Oct-19 05:00N 38°42' W 009°08'4 7.7
2017-Oct-19 04:30N 38°39' W 009°05'0 0.0
2017-Oct-18 22:56N 38°39' W 009°05'4 9.8
2017-Oct-18 22:31N 38°42' W 009°08'4 8.3
2017-Oct-18 22:01N 38°39' W 009°05'3 6.7
2017-Oct-18 21:30N 38°41' W 009°08'3 6.8
2017-Oct-18 21:01N 38°39' W 009°05'3 6.8
2017-Oct-18 20:31N 38°41' W 009°08'3 6.9
2017-Oct-18 20:00N 38°39' W 009°05'0 0.0
2017-Oct-18 19:30N 38°39' W 009°05'4 8.3
2017-Oct-18 19:00N 38°42' W 009°08'4 8.3
2017-Oct-18 18:30N 38°39' W 009°05'4 8.2
2017-Oct-18 18:01N 38°42' W 009°08'4 8.1
2017-Oct-18 17:30N 38°39' W 009°05'4 8.2
2017-Oct-18 17:01N 38°42' W 009°08'2 4.7
2017-Oct-18 16:31N 38°40' W 009°07'1 1.2
2017-Oct-18 16:00N 38°40' W 009°07'2 0.6
2017-Oct-18 12:14N 38°39' W 009°05'314.1
2017-Oct-18 12:00N 38°42' W 009°08'3 5.7
2017-Oct-18 11:30N 38°39' W 009°06'3 5.7
2017-Oct-18 11:00N 38°42' W 009°08'3 6.4
2017-Oct-18 10:31N 38°39' W 009°05'0 0.6
2017-Oct-18 09:59N 38°39' W 009°05'0 0.0
2017-Oct-18 09:30N 38°39' W 009°05'4 8.4
2017-Oct-18 09:01N 38°42' W 009°08'4 8.3
2017-Oct-18 08:30N 38°39' W 009°05'4 8.3
2017-Oct-18 08:00N 38°42' W 009°08'4 7.7
2017-Oct-18 07:30N 38°39' W 009°05'2 3.4
2017-Oct-18 07:01N 38°40' W 009°07'0 0.3
2017-Oct-18 06:31N 38°40' W 009°07'1 2.4
2017-Oct-18 06:01N 38°39' W 009°06'1 0.1
2017-Oct-17 20:24N 38°39' W 009°05'2 5.4
2017-Oct-17 20:01N 38°40' W 009°07'1 1.5
2017-Oct-17 19:31N 38°41' W 009°08'3 5.6
2017-Oct-17 19:00N 38°39' W 009°05'2 3.8
2017-Oct-17 18:31N 38°40' W 009°07'0 0.9
2017-Oct-17 18:00N 38°40' W 009°06'3 5.9
2017-Oct-17 17:30N 38°42' W 009°08'4 8.3
2017-Oct-17 17:01N 38°39' W 009°05'4 8.1
2017-Oct-17 16:31N 38°42' W 009°08'2 4.5
2017-Oct-17 16:00N 38°40' W 009°07'0 0.8
2017-Oct-17 15:31N 38°40' W 009°08'3 5.1
2017-Oct-17 15:00N 38°39' W 009°05'0 0.0
2017-Oct-17 14:30N 38°39' W 009°05'3 6.7
2017-Oct-17 14:00N 38°41' W 009°08'3 5.5
2017-Oct-17 13:30N 38°39' W 009°06'3 5.6
2017-Oct-17 13:00N 38°42' W 009°08'3 5.3
2017-Oct-17 12:30N 38°39' W 009°06'1 1.6
2017-Oct-17 12:00N 38°39' W 009°05'0 0.0
2017-Oct-17 11:31N 38°39' W 009°05'0 0.0
2017-Oct-17 11:00N 38°39' W 009°05'0 0.0
2017-Oct-17 10:30N 38°39' W 009°05'0 0.0
2017-Oct-17 10:00N 38°39' W 009°05'3 6.9
2017-Oct-17 09:31N 38°41' W 009°08'3 5.8
2017-Oct-17 09:00N 38°39' W 009°06'1 1.4
2017-Oct-17 08:31N 38°39' W 009°05'4 7.7
2017-Oct-17 08:00N 38°42' W 009°08'2 4.7
2017-Oct-17 07:31N 38°40' W 009°07'1 2.2
2017-Oct-17 07:00N 38°39' W 009°06'4 7.2
2017-Oct-17 06:31N 38°42' W 009°08'4 8.3
2017-Oct-17 06:00N 38°39' W 009°05'4 7.4
2017-Oct-17 05:30N 38°42' W 009°08'3 6.7
2017-Oct-17 05:00N 38°39' W 009°05'3 6.8
2017-Oct-17 04:31N 38°42' W 009°08'4 7.5
2017-Oct-17 04:00N 38°39' W 009°05'0 0.0
2017-Oct-17 01:23N 38°39' W 009°05'411.3
2017-Oct-17 01:00N 38°42' W 009°08'4 8.3
2017-Oct-17 00:30N 38°39' W 009°05'4 8.3
2017-Oct-17 00:00N 38°42' W 009°08'4 8.3
2017-Oct-16 23:30N 38°39' W 009°05'4 8.3
2017-Oct-16 23:00N 38°42' W 009°08'4 8.2
2017-Oct-16 22:30N 38°39' W 009°05'3 6.8
2017-Oct-16 22:00N 38°41' W 009°08'2 5.0
2017-Oct-16 21:30N 38°39' W 009°06'3 5.2
2017-Oct-16 21:00N 38°42' W 009°08'3 5.4
2017-Oct-16 20:30N 38°39' W 009°06'1 1.8
2017-Oct-16 20:00N 38°39' W 009°05'0 0.0
2017-Oct-16 19:30N 38°39' W 009°05'4 8.4
2017-Oct-16 19:01N 38°42' W 009°08'4 8.3
2017-Oct-16 18:30N 38°39' W 009°05'4 7.8
2017-Oct-16 18:01N 38°42' W 009°08'2 4.0
2017-Oct-16 17:31N 38°40' W 009°07'1 1.9
2017-Oct-16 17:01N 38°40' W 009°06'3 6.0
2017-Oct-16 16:30N 38°42' W 009°08'4 8.4
2017-Oct-16 16:00N 38°39' W 009°05'0 0.0
2017-Oct-16 08:55N 38°39' W 009°05'0 0.1
2017-Oct-16 08:29N 38°39' W 009°05'3 6.6
2017-Oct-16 08:00N 38°41' W 009°08'3 6.2
2017-Oct-16 07:29N 38°39' W 009°05'4 8.8
2017-Oct-16 07:00N 38°42' W 009°08'4 8.3
2017-Oct-16 06:30N 38°39' W 009°05'3 5.4
2017-Oct-16 06:01N 38°41' W 009°08'3 5.0
2017-Oct-16 05:30N 38°39' W 009°05'  
2017-Oct-13 19:41N 38°39' W 009°05'0 0.5
2017-Oct-13 19:30N 38°39' W 009°05'4 8.3
2017-Oct-13 19:00N 38°42' W 009°08'4 8.3
2017-Oct-13 18:31N 38°39' W 009°05'4 7.9
2017-Oct-13 18:00N 38°42' W 009°08'2 4.7
2017-Oct-13 17:31N 38°40' W 009°07'1 2.2
2017-Oct-13 17:00N 38°39' W 009°06'3 6.9
2017-Oct-13 16:30N 38°42' W 009°08'4 8.3
2017-Oct-13 16:00N 38°39' W 009°05'0 0.1
2017-Oct-13 15:30N 38°39' W 009°05'0 0.3
2017-Oct-13 15:00N 38°39' W 009°05'0 0.0
2017-Oct-13 14:30N 38°39' W 009°05'0 0.0
2017-Oct-13 14:00N 38°39' W 009°05'  
2017-Oct-10 09:18N 38°39' W 009°05'0 0.0
2017-Oct-10 09:00N 38°39' W 009°05'  

Dump ship's entire track history